sensor_id;sensor_type;location;lat;lon;timestamp;P1;durP1;ratioP1;P2;durP2;ratioP2
21959;SDS011;11144;43.030;25.108;2022-09-20T00:00:08;0.30;;;0.15;;
21959;SDS011;11144;43.030;25.108;2022-09-20T00:01:43;0.95;;;0.20;;
21959;SDS011;11144;43.030;25.108;2022-09-20T00:03:17;4.35;;;0.30;;
21959;SDS011;11144;43.030;25.108;2022-09-20T00:04:50;0.45;;;0.20;;
21959;SDS011;11144;43.030;25.108;2022-09-20T00:06:24;0.43;;;0.20;;
21959;SDS011;11144;43.030;25.108;2022-09-20T00:08:00;1.88;;;0.30;;
21959;SDS011;11144;43.030;25.108;2022-09-20T00:09:34;0.88;;;0.30;;
21959;SDS011;11144;43.030;25.108;2022-09-20T00:11:08;1.67;;;0.20;;
21959;SDS011;11144;43.030;25.108;2022-09-20T00:12:45;0.95;;;0.20;;
21959;SDS011;11144;43.030;25.108;2022-09-20T00:14:17;0.88;;;0.30;;
21959;SDS011;11144;43.030;25.108;2022-09-20T00:15:51;2.33;;;0.40;;
21959;SDS011;11144;43.030;25.108;2022-09-20T00:17:24;2.05;;;0.60;;
21959;SDS011;11144;43.030;25.108;2022-09-20T00:18:58;3.58;;;0.50;;
21959;SDS011;11144;43.030;25.108;2022-09-20T00:20:34;2.30;;;0.65;;
21959;SDS011;11144;43.030;25.108;2022-09-20T00:22:07;1.88;;;0.77;;
21959;SDS011;11144;43.030;25.108;2022-09-20T00:23:42;0.90;;;0.40;;
21959;SDS011;11144;43.030;25.108;2022-09-20T00:25:16;0.38;;;0.22;;
21959;SDS011;11144;43.030;25.108;2022-09-20T00:26:49;1.42;;;0.30;;
21959;SDS011;11144;43.030;25.108;2022-09-20T00:28:22;2.05;;;0.35;;
21959;SDS011;11144;43.030;25.108;2022-09-20T00:29:56;1.40;;;0.57;;
21959;SDS011;11144;43.030;25.108;2022-09-20T00:31:29;0.90;;;0.30;;
21959;SDS011;11144;43.030;25.108;2022-09-20T00:33:03;0.40;;;0.20;;
21959;SDS011;11144;43.030;25.108;2022-09-20T00:34:36;1.30;;;0.20;;
21959;SDS011;11144;43.030;25.108;2022-09-20T00:36:27;0.20;;;0.15;;
21959;SDS011;11144;43.030;25.108;2022-09-20T00:37:59;0.20;;;0.10;;
21959;SDS011;11144;43.030;25.108;2022-09-20T00:39:33;0.10;;;0.10;;
21959;SDS011;11144;43.030;25.108;2022-09-20T00:41:07;0.40;;;0.20;;
21959;SDS011;11144;43.030;25.108;2022-09-20T00:42:40;0.55;;;0.30;;
21959;SDS011;11144;43.030;25.108;2022-09-20T00:46:26;0.70;;;0.20;;
21959;SDS011;11144;43.030;25.108;2022-09-20T00:48:06;0.20;;;0.20;;
21959;SDS011;11144;43.030;25.108;2022-09-20T00:49:44;0.38;;;0.30;;
21959;SDS011;11144;43.030;25.108;2022-09-20T00:51:18;2.47;;;0.40;;
21959;SDS011;11144;43.030;25.108;2022-09-20T00:52:59;0.43;;;0.20;;
21959;SDS011;11144;43.030;25.108;2022-09-20T00:54:38;1.27;;;0.25;;
21959;SDS011;11144;43.030;25.108;2022-09-20T00:56:11;0.63;;;0.35;;
21959;SDS011;11144;43.030;25.108;2022-09-20T00:57:47;0.13;;;0.13;;
21959;SDS011;11144;43.030;25.108;2022-09-20T00:59:21;0.75;;;0.45;;
21959;SDS011;11144;43.030;25.108;2022-09-20T01:00:57;0.57;;;0.50;;
21959;SDS011;11144;43.030;25.108;2022-09-20T01:02:31;0.80;;;0.60;;
21959;SDS011;11144;43.030;25.108;2022-09-20T01:04:08;1.13;;;0.50;;
21959;SDS011;11144;43.030;25.108;2022-09-20T01:05:43;0.90;;;0.65;;
21959;SDS011;11144;43.030;25.108;2022-09-20T01:07:17;0.93;;;0.50;;
21959;SDS011;11144;43.030;25.108;2022-09-20T01:08:52;0.60;;;0.45;;
21959;SDS011;11144;43.030;25.108;2022-09-20T01:10:31;0.60;;;0.40;;
21959;SDS011;11144;43.030;25.108;2022-09-20T01:12:05;0.95;;;0.40;;
21959;SDS011;11144;43.030;25.108;2022-09-20T01:13:43;0.68;;;0.40;;
21959;SDS011;11144;43.030;25.108;2022-09-20T01:15:16;0.43;;;0.40;;
21959;SDS011;11144;43.030;25.108;2022-09-20T01:16:50;0.80;;;0.45;;
21959;SDS011;11144;43.030;25.108;2022-09-20T01:18:26;0.90;;;0.57;;
21959;SDS011;11144;43.030;25.108;2022-09-20T01:20:06;2.20;;;0.60;;
21959;SDS011;11144;43.030;25.108;2022-09-20T01:21:42;0.65;;;0.50;;
21959;SDS011;11144;43.030;25.108;2022-09-20T01:23:23;1.10;;;0.50;;
21959;SDS011;11144;43.030;25.108;2022-09-20T01:25:08;0.43;;;0.40;;
21959;SDS011;11144;43.030;25.108;2022-09-20T01:26:56;1.83;;;0.50;;
21959;SDS011;11144;43.030;25.108;2022-09-20T01:28:41;1.25;;;0.70;;
21959;SDS011;11144;43.030;25.108;2022-09-20T01:30:19;1.02;;;0.70;;
21959;SDS011;11144;43.030;25.108;2022-09-20T01:31:54;0.70;;;0.50;;
21959;SDS011;11144;43.030;25.108;2022-09-20T01:33:32;1.02;;;0.80;;
21959;SDS011;11144;43.030;25.108;2022-09-20T01:35:12;0.77;;;0.55;;
21959;SDS011;11144;43.030;25.108;2022-09-20T01:36:52;1.17;;;0.80;;
21959;SDS011;11144;43.030;25.108;2022-09-20T01:38:29;0.85;;;0.70;;
21959;SDS011;11144;43.030;25.108;2022-09-20T01:40:12;0.90;;;0.70;;
21959;SDS011;11144;43.030;25.108;2022-09-20T01:41:54;1.20;;;0.80;;
21959;SDS011;11144;43.030;25.108;2022-09-20T01:43:31;0.88;;;0.70;;
21959;SDS011;11144;43.030;25.108;2022-09-20T01:45:11;1.13;;;0.65;;
21959;SDS011;11144;43.030;25.108;2022-09-20T01:46:53;1.33;;;0.68;;
21959;SDS011;11144;43.030;25.108;2022-09-20T01:48:34;0.88;;;0.80;;
21959;SDS011;11144;43.030;25.108;2022-09-20T01:50:12;1.75;;;0.90;;
21959;SDS011;11144;43.030;25.108;2022-09-20T01:52:12;3.10;;;0.90;;
21959;SDS011;11144;43.030;25.108;2022-09-20T02:00:54;2.67;;;1.17;;
21959;SDS011;11144;43.030;25.108;2022-09-20T02:02:47;2.95;;;1.10;;
21959;SDS011;11144;43.030;25.108;2022-09-20T02:04:57;1.27;;;1.15;;
21959;SDS011;11144;43.030;25.108;2022-09-20T02:06:55;1.35;;;1.05;;
21959;SDS011;11144;43.030;25.108;2022-09-20T02:11:03;2.55;;;1.30;;
21959;SDS011;11144;43.030;25.108;2022-09-20T02:12:49;2.60;;;1.25;;
21959;SDS011;11144;43.030;25.108;2022-09-20T02:14:29;2.28;;;1.08;;
21959;SDS011;11144;43.030;25.108;2022-09-20T02:16:19;2.35;;;1.25;;
21959;SDS011;11144;43.030;25.108;2022-09-20T02:18:05;3.25;;;1.23;;
21959;SDS011;11144;43.030;25.108;2022-09-20T02:20:00;4.35;;;1.52;;
21959;SDS011;11144;43.030;25.108;2022-09-20T02:21:56;1.17;;;1.05;;
21959;SDS011;11144;43.030;25.108;2022-09-20T02:23:43;2.53;;;1.25;;
21959;SDS011;11144;43.030;25.108;2022-09-20T02:25:28;8.63;;;5.35;;
21959;SDS011;11144;43.030;25.108;2022-09-20T02:27:20;35.75;;;22.50;;
21959;SDS011;11144;43.030;25.108;2022-09-20T02:29:00;11.20;;;6.90;;
21959;SDS011;11144;43.030;25.108;2022-09-20T02:30:42;20.08;;;11.90;;
21959;SDS011;11144;43.030;25.108;2022-09-20T02:32:31;16.70;;;9.07;;
21959;SDS011;11144;43.030;25.108;2022-09-20T02:34:24;2.67;;;2.05;;
21959;SDS011;11144;43.030;25.108;2022-09-20T02:36:15;1.45;;;1.13;;
21959;SDS011;11144;43.030;25.108;2022-09-20T02:38:02;2.42;;;1.20;;
21959;SDS011;11144;43.030;25.108;2022-09-20T02:39:44;2.08;;;1.63;;
21959;SDS011;11144;43.030;25.108;2022-09-20T02:41:35;1.50;;;1.30;;
21959;SDS011;11144;43.030;25.108;2022-09-20T02:43:24;3.47;;;1.40;;
21959;SDS011;11144;43.030;25.108;2022-09-20T02:45:03;3.33;;;1.35;;
21959;SDS011;11144;43.030;25.108;2022-09-20T02:46:44;1.30;;;1.20;;
21959;SDS011;11144;43.030;25.108;2022-09-20T02:48:28;1.60;;;1.10;;
21959;SDS011;11144;43.030;25.108;2022-09-20T02:50:12;2.03;;;1.52;;
21959;SDS011;11144;43.030;25.108;2022-09-20T02:51:56;2.50;;;1.70;;
21959;SDS011;11144;43.030;25.108;2022-09-20T02:53:36;2.88;;;1.50;;
21959;SDS011;11144;43.030;25.108;2022-09-20T02:55:17;4.88;;;1.60;;
21959;SDS011;11144;43.030;25.108;2022-09-20T02:57:01;2.75;;;1.42;;
21959;SDS011;11144;43.030;25.108;2022-09-20T02:58:45;1.73;;;1.30;;
21959;SDS011;11144;43.030;25.108;2022-09-20T03:00:25;4.82;;;1.58;;
21959;SDS011;11144;43.030;25.108;2022-09-20T03:02:07;6.55;;;1.45;;
21959;SDS011;11144;43.030;25.108;2022-09-20T03:03:53;2.90;;;1.45;;
21959;SDS011;11144;43.030;25.108;2022-09-20T03:05:35;3.10;;;1.73;;
21959;SDS011;11144;43.030;25.108;2022-09-20T03:07:20;2.47;;;1.70;;
21959;SDS011;11144;43.030;25.108;2022-09-20T03:09:00;1.33;;;1.13;;
21959;SDS011;11144;43.030;25.108;2022-09-20T03:10:39;3.35;;;1.40;;
21959;SDS011;11144;43.030;25.108;2022-09-20T03:12:23;4.20;;;2.33;;
21959;SDS011;11144;43.030;25.108;2022-09-20T03:14:12;3.83;;;1.63;;
21959;SDS011;11144;43.030;25.108;2022-09-20T03:15:56;3.22;;;1.92;;
21959;SDS011;11144;43.030;25.108;2022-09-20T03:17:39;4.78;;;2.08;;
21959;SDS011;11144;43.030;25.108;2022-09-20T03:19:22;4.13;;;1.92;;
21959;SDS011;11144;43.030;25.108;2022-09-20T03:21:07;2.20;;;1.40;;
21959;SDS011;11144;43.030;25.108;2022-09-20T03:22:55;10.30;;;5.70;;
21959;SDS011;11144;43.030;25.108;2022-09-20T03:24:37;6.45;;;4.57;;
21959;SDS011;11144;43.030;25.108;2022-09-20T03:26:23;3.95;;;2.20;;
21959;SDS011;11144;43.030;25.108;2022-09-20T03:28:13;1.52;;;1.15;;
21959;SDS011;11144;43.030;25.108;2022-09-20T03:29:57;1.98;;;1.40;;
21959;SDS011;11144;43.030;25.108;2022-09-20T03:31:44;1.85;;;1.40;;
21959;SDS011;11144;43.030;25.108;2022-09-20T03:33:33;2.15;;;1.40;;
21959;SDS011;11144;43.030;25.108;2022-09-20T03:35:21;1.98;;;1.60;;
21959;SDS011;11144;43.030;25.108;2022-09-20T03:37:26;1.98;;;1.20;;
21959;SDS011;11144;43.030;25.108;2022-09-20T03:39:17;2.45;;;1.58;;
21959;SDS011;11144;43.030;25.108;2022-09-20T03:41:13;2.67;;;1.75;;
21959;SDS011;11144;43.030;25.108;2022-09-20T03:42:59;6.88;;;1.40;;
21959;SDS011;11144;43.030;25.108;2022-09-20T03:47:08;4.03;;;2.25;;
21959;SDS011;11144;43.030;25.108;2022-09-20T03:51:11;7.53;;;3.47;;
21959;SDS011;11144;43.030;25.108;2022-09-20T03:52:52;3.47;;;1.60;;
21959;SDS011;11144;43.030;25.108;2022-09-20T03:54:41;3.58;;;1.55;;
21959;SDS011;11144;43.030;25.108;2022-09-20T03:58:52;2.53;;;1.75;;
21959;SDS011;11144;43.030;25.108;2022-09-20T04:00:42;2.67;;;1.63;;
21959;SDS011;11144;43.030;25.108;2022-09-20T04:02:33;2.58;;;1.70;;
21959;SDS011;11144;43.030;25.108;2022-09-20T04:04:21;4.93;;;1.65;;
21959;SDS011;11144;43.030;25.108;2022-09-20T04:06:17;6.57;;;2.80;;
21959;SDS011;11144;43.030;25.108;2022-09-20T04:08:08;7.90;;;2.50;;
21959;SDS011;11144;43.030;25.108;2022-09-20T04:11:49;5.75;;;2.05;;
21959;SDS011;11144;43.030;25.108;2022-09-20T04:13:33;2.33;;;1.88;;
21959;SDS011;11144;43.030;25.108;2022-09-20T04:15:15;6.45;;;1.85;;
21959;SDS011;11144;43.030;25.108;2022-09-20T04:16:59;5.15;;;1.90;;
21959;SDS011;11144;43.030;25.108;2022-09-20T04:18:43;2.85;;;1.90;;
21959;SDS011;11144;43.030;25.108;2022-09-20T04:20:22;8.18;;;2.70;;
21959;SDS011;11144;43.030;25.108;2022-09-20T04:22:06;5.70;;;1.95;;
21959;SDS011;11144;43.030;25.108;2022-09-20T04:23:42;4.25;;;2.13;;
21959;SDS011;11144;43.030;25.108;2022-09-20T04:25:22;3.10;;;2.08;;
21959;SDS011;11144;43.030;25.108;2022-09-20T04:27:01;8.00;;;2.17;;
21959;SDS011;11144;43.030;25.108;2022-09-20T04:28:39;6.10;;;2.42;;
21959;SDS011;11144;43.030;25.108;2022-09-20T04:30:19;6.88;;;2.45;;
21959;SDS011;11144;43.030;25.108;2022-09-20T04:31:55;11.25;;;3.03;;
21959;SDS011;11144;43.030;25.108;2022-09-20T04:33:35;10.88;;;2.88;;
21959;SDS011;11144;43.030;25.108;2022-09-20T04:35:17;15.75;;;2.90;;
21959;SDS011;11144;43.030;25.108;2022-09-20T04:37:23;7.95;;;2.80;;
21959;SDS011;11144;43.030;25.108;2022-09-20T04:39:10;9.02;;;2.47;;
21959;SDS011;11144;43.030;25.108;2022-09-20T04:40:57;8.82;;;3.03;;
21959;SDS011;11144;43.030;25.108;2022-09-20T04:45:04;9.43;;;2.75;;
21959;SDS011;11144;43.030;25.108;2022-09-20T04:49:20;10.02;;;2.50;;
21959;SDS011;11144;43.030;25.108;2022-09-20T04:55:31;7.20;;;2.35;;
21959;SDS011;11144;43.030;25.108;2022-09-20T04:57:25;10.85;;;2.00;;
21959;SDS011;11144;43.030;25.108;2022-09-20T04:59:15;5.00;;;1.55;;
21959;SDS011;11144;43.030;25.108;2022-09-20T05:03:25;7.00;;;2.45;;
21959;SDS011;11144;43.030;25.108;2022-09-20T05:05:42;5.30;;;1.75;;
21959;SDS011;11144;43.030;25.108;2022-09-20T05:07:51;8.60;;;2.38;;
21959;SDS011;11144;43.030;25.108;2022-09-20T05:09:51;6.03;;;1.70;;
21959;SDS011;11144;43.030;25.108;2022-09-20T05:11:44;4.18;;;1.38;;
21959;SDS011;11144;43.030;25.108;2022-09-20T05:13:29;10.45;;;2.00;;
21959;SDS011;11144;43.030;25.108;2022-09-20T05:15:10;5.55;;;2.08;;
21959;SDS011;11144;43.030;25.108;2022-09-20T05:17:11;4.30;;;1.77;;
21959;SDS011;11144;43.030;25.108;2022-09-20T05:19:05;6.82;;;1.63;;
21959;SDS011;11144;43.030;25.108;2022-09-20T05:21:02;3.35;;;1.83;;
21959;SDS011;11144;43.030;25.108;2022-09-20T05:25:13;3.92;;;1.90;;
21959;SDS011;11144;43.030;25.108;2022-09-20T05:27:08;4.18;;;1.90;;
21959;SDS011;11144;43.030;25.108;2022-09-20T05:28:54;10.52;;;1.70;;
21959;SDS011;11144;43.030;25.108;2022-09-20T05:30:33;2.97;;;1.60;;
21959;SDS011;11144;43.030;25.108;2022-09-20T05:32:11;6.65;;;1.95;;
21959;SDS011;11144;43.030;25.108;2022-09-20T05:33:51;5.13;;;1.23;;
21959;SDS011;11144;43.030;25.108;2022-09-20T05:35:30;4.05;;;1.63;;
21959;SDS011;11144;43.030;25.108;2022-09-20T05:37:11;3.55;;;1.50;;
21959;SDS011;11144;43.030;25.108;2022-09-20T05:38:58;2.33;;;1.35;;
21959;SDS011;11144;43.030;25.108;2022-09-20T05:40:44;3.25;;;1.13;;
21959;SDS011;11144;43.030;25.108;2022-09-20T05:42:33;3.33;;;1.23;;
21959;SDS011;11144;43.030;25.108;2022-09-20T05:44:15;6.57;;;1.55;;
21959;SDS011;11144;43.030;25.108;2022-09-20T05:46:03;8.63;;;1.30;;
21959;SDS011;11144;43.030;25.108;2022-09-20T05:47:48;5.30;;;1.60;;
21959;SDS011;11144;43.030;25.108;2022-09-20T05:49:35;3.03;;;1.00;;
21959;SDS011;11144;43.030;25.108;2022-09-20T05:51:19;2.40;;;1.27;;
21959;SDS011;11144;43.030;25.108;2022-09-20T05:53:15;6.97;;;1.50;;
21959;SDS011;11144;43.030;25.108;2022-09-20T05:55:15;5.10;;;1.27;;
21959;SDS011;11144;43.030;25.108;2022-09-20T05:56:59;5.53;;;1.20;;
21959;SDS011;11144;43.030;25.108;2022-09-20T06:01:03;3.30;;;0.70;;
21959;SDS011;11144;43.030;25.108;2022-09-20T06:02:46;1.33;;;0.50;;
21959;SDS011;11144;43.030;25.108;2022-09-20T06:04:26;0.32;;;0.28;;
21959;SDS011;11144;43.030;25.108;2022-09-20T06:06:06;1.50;;;0.60;;
21959;SDS011;11144;43.030;25.108;2022-09-20T06:07:50;1.27;;;0.50;;
21959;SDS011;11144;43.030;25.108;2022-09-20T06:09:40;0.50;;;0.38;;
21959;SDS011;11144;43.030;25.108;2022-09-20T06:13:34;0.88;;;0.40;;
21959;SDS011;11144;43.030;25.108;2022-09-20T06:15:17;0.95;;;0.35;;
21959;SDS011;11144;43.030;25.108;2022-09-20T06:16:56;1.23;;;0.25;;
21959;SDS011;11144;43.030;25.108;2022-09-20T06:18:39;0.38;;;0.30;;
21959;SDS011;11144;43.030;25.108;2022-09-20T06:20:23;0.73;;;0.40;;
21959;SDS011;11144;43.030;25.108;2022-09-20T06:22:04;0.88;;;0.25;;
21959;SDS011;11144;43.030;25.108;2022-09-20T06:23:45;0.30;;;0.30;;
21959;SDS011;11144;43.030;25.108;2022-09-20T06:25:19;1.08;;;0.43;;
21959;SDS011;11144;43.030;25.108;2022-09-20T06:26:55;0.70;;;0.40;;
21959;SDS011;11144;43.030;25.108;2022-09-20T06:28:31;1.65;;;0.38;;
21959;SDS011;11144;43.030;25.108;2022-09-20T06:30:07;2.67;;;0.55;;
21959;SDS011;11144;43.030;25.108;2022-09-20T06:31:47;0.60;;;0.43;;
21959;SDS011;11144;43.030;25.108;2022-09-20T06:33:22;1.23;;;0.60;;
21959;SDS011;11144;43.030;25.108;2022-09-20T06:34:56;0.73;;;0.30;;
21959;SDS011;11144;43.030;25.108;2022-09-20T06:36:33;0.50;;;0.40;;
21959;SDS011;11144;43.030;25.108;2022-09-20T06:38:38;0.22;;;0.20;;
21959;SDS011;11144;43.030;25.108;2022-09-20T06:40:38;0.50;;;0.40;;
21959;SDS011;11144;43.030;25.108;2022-09-20T06:42:32;0.45;;;0.35;;
21959;SDS011;11144;43.030;25.108;2022-09-20T06:44:06;0.82;;;0.30;;
21959;SDS011;11144;43.030;25.108;2022-09-20T06:45:39;0.60;;;0.30;;
21959;SDS011;11144;43.030;25.108;2022-09-20T06:47:13;0.65;;;0.40;;
21959;SDS011;11144;43.030;25.108;2022-09-20T06:48:48;0.30;;;0.30;;
21959;SDS011;11144;43.030;25.108;2022-09-20T06:50:21;0.40;;;0.30;;
21959;SDS011;11144;43.030;25.108;2022-09-20T06:51:54;1.30;;;0.30;;
21959;SDS011;11144;43.030;25.108;2022-09-20T06:53:28;0.43;;;0.28;;
21959;SDS011;11144;43.030;25.108;2022-09-20T06:55:03;0.30;;;0.30;;
21959;SDS011;11144;43.030;25.108;2022-09-20T06:56:37;0.47;;;0.30;;
21959;SDS011;11144;43.030;25.108;2022-09-20T06:58:11;2.15;;;0.30;;
21959;SDS011;11144;43.030;25.108;2022-09-20T06:59:44;3.13;;;0.60;;
21959;SDS011;11144;43.030;25.108;2022-09-20T07:01:18;0.73;;;0.30;;
21959;SDS011;11144;43.030;25.108;2022-09-20T07:03:00;0.70;;;0.40;;
21959;SDS011;11144;43.030;25.108;2022-09-20T07:04:35;0.82;;;0.30;;
21959;SDS011;11144;43.030;25.108;2022-09-20T07:06:08;0.57;;;0.30;;
21959;SDS011;11144;43.030;25.108;2022-09-20T07:07:43;1.05;;;0.40;;
21959;SDS011;11144;43.030;25.108;2022-09-20T07:09:17;0.68;;;0.38;;
21959;SDS011;11144;43.030;25.108;2022-09-20T07:10:51;1.35;;;0.70;;
21959;SDS011;11144;43.030;25.108;2022-09-20T07:12:25;0.77;;;0.57;;
21959;SDS011;11144;43.030;25.108;2022-09-20T07:14:04;0.55;;;0.40;;
21959;SDS011;11144;43.030;25.108;2022-09-20T07:15:38;1.60;;;0.50;;
21959;SDS011;11144;43.030;25.108;2022-09-20T07:17:11;0.40;;;0.30;;
21959;SDS011;11144;43.030;25.108;2022-09-20T07:18:45;0.98;;;0.40;;
21959;SDS011;11144;43.030;25.108;2022-09-20T07:20:20;1.08;;;0.40;;
21959;SDS011;11144;43.030;25.108;2022-09-20T07:21:53;0.50;;;0.30;;
21959;SDS011;11144;43.030;25.108;2022-09-20T07:23:27;1.15;;;0.30;;
21959;SDS011;11144;43.030;25.108;2022-09-20T07:25:01;0.90;;;0.40;;
21959;SDS011;11144;43.030;25.108;2022-09-20T07:26:35;0.55;;;0.30;;
21959;SDS011;11144;43.030;25.108;2022-09-20T07:28:09;1.52;;;0.50;;
21959;SDS011;11144;43.030;25.108;2022-09-20T07:29:42;0.40;;;0.30;;
21959;SDS011;11144;43.030;25.108;2022-09-20T07:31:17;2.22;;;0.40;;
21959;SDS011;11144;43.030;25.108;2022-09-20T07:32:51;0.70;;;0.40;;
21959;SDS011;11144;43.030;25.108;2022-09-20T07:34:24;0.32;;;0.20;;
21959;SDS011;11144;43.030;25.108;2022-09-20T07:35:59;1.13;;;0.28;;
21959;SDS011;11144;43.030;25.108;2022-09-20T07:37:32;1.40;;;0.40;;
21959;SDS011;11144;43.030;25.108;2022-09-20T07:39:08;0.40;;;0.20;;
21959;SDS011;11144;43.030;25.108;2022-09-20T07:40:41;2.55;;;0.45;;
21959;SDS011;11144;43.030;25.108;2022-09-20T07:42:15;0.80;;;0.30;;
21959;SDS011;11144;43.030;25.108;2022-09-20T07:43:48;0.63;;;0.30;;
21959;SDS011;11144;43.030;25.108;2022-09-20T07:45:22;2.00;;;0.20;;
21959;SDS011;11144;43.030;25.108;2022-09-20T07:46:56;0.73;;;0.30;;
21959;SDS011;11144;43.030;25.108;2022-09-20T07:48:31;0.90;;;0.30;;
21959;SDS011;11144;43.030;25.108;2022-09-20T07:50:05;0.28;;;0.20;;
21959;SDS011;11144;43.030;25.108;2022-09-20T07:51:41;0.38;;;0.28;;
21959;SDS011;11144;43.030;25.108;2022-09-20T07:53:15;0.47;;;0.25;;
21959;SDS011;11144;43.030;25.108;2022-09-20T07:54:48;0.70;;;0.15;;
21959;SDS011;11144;43.030;25.108;2022-09-20T07:56:21;1.95;;;0.40;;
21959;SDS011;11144;43.030;25.108;2022-09-20T07:57:54;0.50;;;0.22;;
21959;SDS011;11144;43.030;25.108;2022-09-20T07:59:28;1.73;;;0.30;;
21959;SDS011;11144;43.030;25.108;2022-09-20T08:01:02;0.30;;;0.20;;
21959;SDS011;11144;43.030;25.108;2022-09-20T08:02:37;0.30;;;0.20;;
21959;SDS011;11144;43.030;25.108;2022-09-20T08:04:11;0.55;;;0.20;;
21959;SDS011;11144;43.030;25.108;2022-09-20T08:05:45;0.98;;;0.20;;
21959;SDS011;11144;43.030;25.108;2022-09-20T08:07:20;5.25;;;0.55;;
21959;SDS011;11144;43.030;25.108;2022-09-20T08:08:54;1.25;;;0.22;;
21959;SDS011;11144;43.030;25.108;2022-09-20T08:10:27;0.00;;;0.00;;
21959;SDS011;11144;43.030;25.108;2022-09-20T08:12:01;0.10;;;0.10;;
21959;SDS011;11144;43.030;25.108;2022-09-20T08:14:21;2.20;;;0.20;;
21959;SDS011;11144;43.030;25.108;2022-09-20T08:16:02;2.97;;;0.30;;
21959;SDS011;11144;43.030;25.108;2022-09-20T08:17:36;0.47;;;0.20;;
21959;SDS011;11144;43.030;25.108;2022-09-20T08:19:13;0.28;;;0.20;;
21959;SDS011;11144;43.030;25.108;2022-09-20T08:20:48;2.22;;;0.30;;
21959;SDS011;11144;43.030;25.108;2022-09-20T08:22:23;2.95;;;0.20;;
21959;SDS011;11144;43.030;25.108;2022-09-20T08:23:57;1.95;;;0.30;;
21959;SDS011;11144;43.030;25.108;2022-09-20T08:25:30;4.28;;;0.45;;
21959;SDS011;11144;43.030;25.108;2022-09-20T08:27:04;0.20;;;0.20;;
21959;SDS011;11144;43.030;25.108;2022-09-20T08:28:38;0.20;;;0.20;;
21959;SDS011;11144;43.030;25.108;2022-09-20T08:30:11;1.10;;;0.17;;
21959;SDS011;11144;43.030;25.108;2022-09-20T08:31:45;0.95;;;0.15;;
21959;SDS011;11144;43.030;25.108;2022-09-20T08:33:19;0.65;;;0.20;;
21959;SDS011;11144;43.030;25.108;2022-09-20T08:34:52;0.15;;;0.15;;
21959;SDS011;11144;43.030;25.108;2022-09-20T08:36:25;0.93;;;0.20;;
21959;SDS011;11144;43.030;25.108;2022-09-20T08:38:07;0.73;;;0.20;;
21959;SDS011;11144;43.030;25.108;2022-09-20T08:40:01;0.52;;;0.30;;
21959;SDS011;11144;43.030;25.108;2022-09-20T08:41:36;1.80;;;0.30;;
21959;SDS011;11144;43.030;25.108;2022-09-20T08:43:13;0.77;;;0.25;;
21959;SDS011;11144;43.030;25.108;2022-09-20T08:44:54;1.25;;;0.47;;
21959;SDS011;11144;43.030;25.108;2022-09-20T08:46:31;1.60;;;0.22;;
21959;SDS011;11144;43.030;25.108;2022-09-20T08:48:09;1.63;;;0.70;;
21959;SDS011;11144;43.030;25.108;2022-09-20T08:49:47;0.63;;;0.43;;
21959;SDS011;11144;43.030;25.108;2022-09-20T08:51:28;0.20;;;0.20;;
21959;SDS011;11144;43.030;25.108;2022-09-20T08:53:04;1.23;;;0.40;;
21959;SDS011;11144;43.030;25.108;2022-09-20T08:54:39;1.15;;;0.30;;
21959;SDS011;11144;43.030;25.108;2022-09-20T08:56:13;0.30;;;0.20;;
21959;SDS011;11144;43.030;25.108;2022-09-20T08:57:47;0.43;;;0.22;;
21959;SDS011;11144;43.030;25.108;2022-09-20T08:59:22;0.20;;;0.20;;
21959;SDS011;11144;43.030;25.108;2022-09-20T09:00:56;0.43;;;0.10;;
21959;SDS011;11144;43.030;25.108;2022-09-20T09:02:30;2.50;;;0.20;;
21959;SDS011;11144;43.030;25.108;2022-09-20T09:04:09;1.80;;;0.43;;
21959;SDS011;11144;43.030;25.108;2022-09-20T09:05:45;4.03;;;0.57;;
21959;SDS011;11144;43.030;25.108;2022-09-20T09:07:20;2.53;;;0.70;;
21959;SDS011;11144;43.030;25.108;2022-09-20T09:08:57;4.40;;;1.70;;
21959;SDS011;11144;43.030;25.108;2022-09-20T09:10:34;2.95;;;0.47;;
21959;SDS011;11144;43.030;25.108;2022-09-20T09:12:18;2.08;;;0.70;;
21959;SDS011;11144;43.030;25.108;2022-09-20T09:13:56;2.75;;;0.20;;
21959;SDS011;11144;43.030;25.108;2022-09-20T09:15:33;0.30;;;0.30;;
21959;SDS011;11144;43.030;25.108;2022-09-20T09:17:09;2.22;;;0.40;;
21959;SDS011;11144;43.030;25.108;2022-09-20T09:18:45;1.83;;;0.55;;
21959;SDS011;11144;43.030;25.108;2022-09-20T09:20:22;0.55;;;0.40;;
21959;SDS011;11144;43.030;25.108;2022-09-20T09:21:56;0.52;;;0.40;;
21959;SDS011;11144;43.030;25.108;2022-09-20T09:23:36;0.40;;;0.30;;
21959;SDS011;11144;43.030;25.108;2022-09-20T09:25:20;1.85;;;0.30;;
21959;SDS011;11144;43.030;25.108;2022-09-20T09:27:05;1.35;;;0.40;;
21959;SDS011;11144;43.030;25.108;2022-09-20T09:28:40;2.42;;;0.60;;
21959;SDS011;11144;43.030;25.108;2022-09-20T09:30:18;1.95;;;0.50;;
21959;SDS011;11144;43.030;25.108;2022-09-20T09:31:53;2.50;;;0.40;;
21959;SDS011;11144;43.030;25.108;2022-09-20T09:33:27;0.57;;;0.15;;
21959;SDS011;11144;43.030;25.108;2022-09-20T09:35:19;0.15;;;0.15;;
21959;SDS011;11144;43.030;25.108;2022-09-20T09:36:56;0.20;;;0.10;;
21959;SDS011;11144;43.030;25.108;2022-09-20T09:38:30;0.30;;;0.20;;
21959;SDS011;11144;43.030;25.108;2022-09-20T09:40:06;0.20;;;0.10;;
21959;SDS011;11144;43.030;25.108;2022-09-20T09:41:47;1.02;;;0.10;;
21959;SDS011;11144;43.030;25.108;2022-09-20T09:43:24;2.88;;;0.28;;
21959;SDS011;11144;43.030;25.108;2022-09-20T09:45:09;0.52;;;0.25;;
21959;SDS011;11144;43.030;25.108;2022-09-20T09:46:43;0.75;;;0.20;;
21959;SDS011;11144;43.030;25.108;2022-09-20T09:48:17;2.50;;;0.20;;
21959;SDS011;11144;43.030;25.108;2022-09-20T09:49:54;0.10;;;0.10;;
21959;SDS011;11144;43.030;25.108;2022-09-20T09:51:34;0.20;;;0.10;;
21959;SDS011;11144;43.030;25.108;2022-09-20T09:53:09;3.15;;;0.10;;
21959;SDS011;11144;43.030;25.108;2022-09-20T09:54:46;0.10;;;0.10;;
21959;SDS011;11144;43.030;25.108;2022-09-20T09:56:40;1.60;;;0.30;;
21959;SDS011;11144;43.030;25.108;2022-09-20T09:58:33;2.35;;;0.20;;
21959;SDS011;11144;43.030;25.108;2022-09-20T10:00:22;1.20;;;0.17;;
21959;SDS011;11144;43.030;25.108;2022-09-20T10:01:58;0.35;;;0.20;;
21959;SDS011;11144;43.030;25.108;2022-09-20T10:03:46;0.30;;;0.20;;
21959;SDS011;11144;43.030;25.108;2022-09-20T10:05:27;1.55;;;0.20;;
21959;SDS011;11144;43.030;25.108;2022-09-20T10:07:08;0.60;;;0.20;;
21959;SDS011;11144;43.030;25.108;2022-09-20T10:08:53;0.47;;;0.32;;
21959;SDS011;11144;43.030;25.108;2022-09-20T10:10:38;4.20;;;0.20;;
21959;SDS011;11144;43.030;25.108;2022-09-20T10:12:25;0.40;;;0.20;;
21959;SDS011;11144;43.030;25.108;2022-09-20T10:14:11;7.28;;;0.60;;
21959;SDS011;11144;43.030;25.108;2022-09-20T10:15:58;0.50;;;0.30;;
21959;SDS011;11144;43.030;25.108;2022-09-20T10:17:44;1.98;;;0.30;;
21959;SDS011;11144;43.030;25.108;2022-09-20T10:19:25;1.05;;;0.22;;
21959;SDS011;11144;43.030;25.108;2022-09-20T10:21:20;1.67;;;0.40;;
21959;SDS011;11144;43.030;25.108;2022-09-20T10:23:07;0.98;;;0.40;;
21959;SDS011;11144;43.030;25.108;2022-09-20T10:25:17;0.45;;;0.20;;
21959;SDS011;11144;43.030;25.108;2022-09-20T10:29:03;0.35;;;0.20;;
21959;SDS011;11144;43.030;25.108;2022-09-20T10:30:47;0.95;;;0.57;;
21959;SDS011;11144;43.030;25.108;2022-09-20T10:32:35;0.13;;;0.10;;
21959;SDS011;11144;43.030;25.108;2022-09-20T10:34:32;0.20;;;0.13;;
21959;SDS011;11144;43.030;25.108;2022-09-20T10:36:22;0.70;;;0.20;;
21959;SDS011;11144;43.030;25.108;2022-09-20T10:38:04;1.27;;;0.20;;
21959;SDS011;11144;43.030;25.108;2022-09-20T10:39:46;0.75;;;0.20;;